Terminal Aerodrome Forecast
Issued by NWS

Home | Current Version | Previous Version | Text Only | Print | Product List | Glossary On
Versions: 1 2 3 4 5 6 7 8 9 10 11 12 13 14 15 16 17 18 19 20 21 22 23 24 25 26 27 28 29 30 31 32 33 34 35 36 37 38 39 40 41 42
000
FTUS41 KRNK 212338
TAFLWB
TAF
KLWB 212338Z 2200/2224 00000KT P6SM -SHRA SCT015 BKN090 OVC120
      TEMPO 2200/2201 3SM SHRA BR BKN015
     FM220300 00000KT 4SM BR SCT004 BKN070
     FM220700 00000KT 1 1/2SM BR SCT004
      TEMPO 2207/2209 1/4SM FG OVC004
     FM221300 00000KT 3SM BR SCT005 BKN025
     FM221500 27004KT P6SM -SHRA VCTS BKN040CB=

USA.gov is the U.S. government's official web portal to all federal, state and local government web resources and services.